createdAt,value
2022-12-22T00:01:27.229Z,3.63
2022-12-22T00:03:53.667Z,3.20
2022-12-22T00:06:19.947Z,3.57
2022-12-22T00:08:46.285Z,3.60
2022-12-22T00:11:12.668Z,3.30
2022-12-22T00:13:39.006Z,2.93
2022-12-22T00:16:05.405Z,3.03
2022-12-22T00:18:31.753Z,3.17
2022-12-22T00:20:58.127Z,2.97
2022-12-22T00:23:24.486Z,3.40
2022-12-22T00:25:50.867Z,3.10
2022-12-22T00:28:17.236Z,2.80
2022-12-22T00:30:43.632Z,3.73
2022-12-22T00:33:09.940Z,3.00
2022-12-22T00:35:36.335Z,3.07
2022-12-22T00:38:02.675Z,3.40
2022-12-22T00:40:29.053Z,3.13
2022-12-22T00:42:55.425Z,3.30
2022-12-22T00:45:21.793Z,2.90
2022-12-22T00:47:48.134Z,2.67
2022-12-22T00:50:14.516Z,3.00
2022-12-22T00:52:40.859Z,2.63
2022-12-22T00:55:07.277Z,2.70
2022-12-22T00:57:33.638Z,3.10
2022-12-22T01:00:00.026Z,3.40
2022-12-22T01:02:26.549Z,3.13
2022-12-22T01:04:52.750Z,2.80
2022-12-22T01:07:19.094Z,3.53
2022-12-22T01:09:45.467Z,2.80
2022-12-22T01:12:11.845Z,3.07
2022-12-22T01:14:39.717Z,2.90
2022-12-22T01:17:04.619Z,3.10
2022-12-22T01:19:31.016Z,3.13
2022-12-22T01:21:57.344Z,3.10
2022-12-22T01:24:23.707Z,3.20
2022-12-22T01:26:50.092Z,2.70
2022-12-22T01:29:16.434Z,2.80
2022-12-22T01:31:43.771Z,2.83
2022-12-22T01:34:09.152Z,3.00
2022-12-22T01:36:35.541Z,3.00
2022-12-22T01:39:01.876Z,3.13
2022-12-22T01:41:28.279Z,3.10
2022-12-22T01:43:54.620Z,3.03
2022-12-22T01:46:21.028Z,2.77
2022-12-22T01:48:47.338Z,3.17
2022-12-22T01:51:13.754Z,3.40
2022-12-22T01:53:40.155Z,2.70
2022-12-22T01:56:06.539Z,2.97
2022-12-22T01:58:32.874Z,3.00
2022-12-22T02:00:59.259Z,3.20
2022-12-22T02:03:25.656Z,2.70
2022-12-22T02:05:52.001Z,2.93
2022-12-22T02:08:18.336Z,2.87
2022-12-22T02:10:44.715Z,3.10
2022-12-22T02:13:11.062Z,3.20
2022-12-22T02:15:39.300Z,2.80
2022-12-22T02:18:03.787Z,2.73
2022-12-22T02:20:30.169Z,2.80
2022-12-22T02:22:56.506Z,2.90
2022-12-22T02:25:22.899Z,3.17
2022-12-22T02:27:49.249Z,2.87
2022-12-22T02:30:15.640Z,3.00
2022-12-22T02:32:41.983Z,2.93
2022-12-22T02:35:08.365Z,2.97
2022-12-22T02:37:34.709Z,2.87
2022-12-22T02:40:01.097Z,2.80
2022-12-22T02:42:27.450Z,3.00
2022-12-22T02:44:53.827Z,2.80
2022-12-22T02:47:20.184Z,2.77
2022-12-22T02:49:46.592Z,2.80
2022-12-22T02:52:12.936Z,2.80
2022-12-22T02:54:39.332Z,2.97
2022-12-22T02:57:05.681Z,2.53
2022-12-22T02:59:32.088Z,2.80
2022-12-22T03:01:58.624Z,2.77
2022-12-22T03:04:24.805Z,2.97
2022-12-22T03:06:51.159Z,2.50
2022-12-22T03:09:17.580Z,2.70
2022-12-22T03:11:43.940Z,2.87
2022-12-22T03:14:10.333Z,3.00
2022-12-22T03:16:36.707Z,2.67
2022-12-22T03:19:03.071Z,2.90
2022-12-22T03:21:29.422Z,2.70
2022-12-22T03:23:57.027Z,2.57
2022-12-22T03:26:22.194Z,2.47
2022-12-22T03:28:48.579Z,2.97
2022-12-22T03:31:14.980Z,2.67
2022-12-22T03:33:41.329Z,2.90
2022-12-22T03:36:07.701Z,3.10
2022-12-22T03:38:34.097Z,3.27
2022-12-22T03:41:00.450Z,3.10
2022-12-22T03:43:26.837Z,2.87
2022-12-22T03:45:53.182Z,3.33
2022-12-22T03:48:19.577Z,2.70
2022-12-22T03:50:45.923Z,2.70
2022-12-22T03:53:12.317Z,3.00
2022-12-22T03:55:38.671Z,3.20
2022-12-22T03:58:05.059Z,2.90
2022-12-22T04:00:31.421Z,3.33
2022-12-22T04:02:57.894Z,3.10
2022-12-22T04:05:24.129Z,3.20
2022-12-22T04:07:50.558Z,3.60
2022-12-22T04:10:16.895Z,3.77
2022-12-22T04:12:43.301Z,3.50
2022-12-22T04:15:09.614Z,3.50
2022-12-22T04:17:36.030Z,3.67
2022-12-22T04:20:02.374Z,3.70
2022-12-22T04:22:28.843Z,3.80
2022-12-22T04:24:55.145Z,3.83
2022-12-22T04:27:21.552Z,3.90
2022-12-22T04:29:47.888Z,4.33
2022-12-22T04:32:14.398Z,4.40
2022-12-22T04:34:40.641Z,5.00
2022-12-22T04:37:16.524Z,4.23
2022-12-22T04:39:33.365Z,4.23
2022-12-22T04:41:59.788Z,4.60
2022-12-22T04:44:26.123Z,4.30
2022-12-22T04:46:52.509Z,4.97
2022-12-22T04:49:18.857Z,5.00
2022-12-22T04:51:45.261Z,4.73
2022-12-22T04:54:11.641Z,5.00
2022-12-22T04:56:38.049Z,5.20
2022-12-22T04:59:04.393Z,5.63
2022-12-22T05:01:30.909Z,5.10
2022-12-22T05:03:57.127Z,4.80
2022-12-22T05:06:23.512Z,5.60
2022-12-22T05:08:49.849Z,5.97
2022-12-22T05:11:16.235Z,5.97
2022-12-22T05:13:42.581Z,5.77
2022-12-22T05:16:09.037Z,6.00
2022-12-22T05:18:35.326Z,5.80
2022-12-22T05:21:01.709Z,6.07
2022-12-22T05:23:28.040Z,6.13
2022-12-22T05:25:54.422Z,5.63
2022-12-22T05:28:20.761Z,6.17
2022-12-22T05:30:47.204Z,5.90
2022-12-22T05:33:13.512Z,6.17
2022-12-22T05:35:39.891Z,6.00
2022-12-22T05:38:06.263Z,6.53
2022-12-22T05:40:32.656Z,6.83
2022-12-22T05:42:59.032Z,6.70
2022-12-22T05:45:25.420Z,6.70
2022-12-22T05:47:51.780Z,6.87
2022-12-22T05:50:18.144Z,6.50
2022-12-22T05:52:44.486Z,7.50
2022-12-22T05:55:10.883Z,7.00
2022-12-22T05:57:37.221Z,6.80
2022-12-22T06:00:03.642Z,6.67
2022-12-22T06:02:30.103Z,6.90
2022-12-22T06:04:56.363Z,6.83
2022-12-22T06:07:22.705Z,6.83
2022-12-22T06:09:49.093Z,6.90
2022-12-22T06:12:15.520Z,7.10
2022-12-22T06:14:41.908Z,6.37
2022-12-22T06:17:08.256Z,7.20
2022-12-22T06:19:34.671Z,6.63
2022-12-22T06:22:01.010Z,7.17
2022-12-22T06:24:27.391Z,6.50
2022-12-22T06:26:53.755Z,6.77
2022-12-22T06:29:20.145Z,6.40
2022-12-22T06:31:46.541Z,6.80
2022-12-22T06:34:12.898Z,6.60
2022-12-22T06:36:39.270Z,7.07
2022-12-22T06:39:05.655Z,7.20
2022-12-22T06:41:32.005Z,6.23
2022-12-22T06:43:59.841Z,6.13
2022-12-22T06:46:24.770Z,6.40
2022-12-22T06:48:51.139Z,6.57
2022-12-22T06:51:17.482Z,6.43
2022-12-22T06:53:43.864Z,5.63
2022-12-22T06:56:10.210Z,6.30
2022-12-22T06:58:36.613Z,6.23
2022-12-22T07:01:02.958Z,5.93
2022-12-22T07:03:29.441Z,6.43
2022-12-22T07:05:55.682Z,7.07
2022-12-22T07:08:22.075Z,6.23
2022-12-22T07:10:48.414Z,6.23
2022-12-22T07:13:14.875Z,6.87
2022-12-22T07:15:41.177Z,6.00
2022-12-22T07:18:07.630Z,6.80
2022-12-22T07:20:33.979Z,6.10
2022-12-22T07:23:00.439Z,6.40
2022-12-22T07:25:26.789Z,5.70
2022-12-22T07:27:53.161Z,5.87
2022-12-22T07:30:19.520Z,6.10
2022-12-22T07:32:45.904Z,7.20
2022-12-22T07:35:12.255Z,6.60
2022-12-22T07:37:38.678Z,5.73
2022-12-22T07:40:05.032Z,6.17
2022-12-22T07:42:31.451Z,5.57
2022-12-22T07:44:57.846Z,6.33
2022-12-22T07:47:27.279Z,5.93
2022-12-22T07:49:50.536Z,5.97
2022-12-22T07:52:16.920Z,6.60
2022-12-22T07:54:43.270Z,6.07
2022-12-22T07:57:09.670Z,6.50
2022-12-22T07:59:37.279Z,6.33
2022-12-22T08:02:02.574Z,5.83
2022-12-22T08:04:28.904Z,7.20
2022-12-22T08:06:55.245Z,6.70
2022-12-22T08:09:21.764Z,6.53
2022-12-22T08:11:47.976Z,6.50
2022-12-22T08:14:14.324Z,6.87
2022-12-22T08:16:40.743Z,6.20
2022-12-22T08:19:07.039Z,6.77
2022-12-22T08:21:33.438Z,6.40
2022-12-22T08:23:59.792Z,6.23
2022-12-22T08:26:26.165Z,6.03
2022-12-22T08:28:52.526Z,5.90
2022-12-22T08:31:18.939Z,6.60
2022-12-22T08:33:45.245Z,6.90
2022-12-22T08:36:11.646Z,5.97
2022-12-22T08:38:37.997Z,5.90
2022-12-22T08:41:04.380Z,6.70
2022-12-22T08:43:30.725Z,6.37
2022-12-22T08:45:57.119Z,6.70
2022-12-22T08:48:23.471Z,6.73
2022-12-22T08:50:49.864Z,6.53
2022-12-22T08:53:45.174Z,7.10
2022-12-22T08:55:42.595Z,6.33
2022-12-22T08:58:08.935Z,6.70
2022-12-22T09:00:35.363Z,6.20
2022-12-22T09:03:01.779Z,6.30
2022-12-22T09:05:28.087Z,7.20
2022-12-22T09:07:54.434Z,6.20
2022-12-22T09:10:20.840Z,6.60
2022-12-22T09:12:47.185Z,6.20
2022-12-22T09:15:13.572Z,6.10
2022-12-22T09:17:39.919Z,5.80
2022-12-22T09:20:06.331Z,5.33
2022-12-22T09:22:32.676Z,5.90
2022-12-22T09:24:59.087Z,4.90
2022-12-22T09:27:25.432Z,5.67
2022-12-22T09:29:51.819Z,5.67
2022-12-22T09:32:18.200Z,5.50
2022-12-22T09:34:45.516Z,5.60
2022-12-22T09:37:10.953Z,5.33
2022-12-22T09:39:37.327Z,4.73
2022-12-22T09:42:04.890Z,5.57
2022-12-22T09:44:30.052Z,6.13
2022-12-22T09:46:56.388Z,4.93
2022-12-22T09:49:22.773Z,5.40
2022-12-22T09:51:49.116Z,5.87
2022-12-22T09:54:15.514Z,5.30
2022-12-22T09:56:41.890Z,6.20
2022-12-22T09:59:08.303Z,5.03
2022-12-22T10:01:34.806Z,5.40
2022-12-22T10:04:01.350Z,4.70
2022-12-22T10:06:27.411Z,5.27
2022-12-22T10:08:53.803Z,5.37
2022-12-22T10:11:20.157Z,5.30
2022-12-22T10:13:48.665Z,5.30
2022-12-22T10:16:15.027Z,4.80
2022-12-22T10:18:41.379Z,5.47
2022-12-22T10:21:07.747Z,5.50
2022-12-22T10:23:34.113Z,5.00
2022-12-22T10:26:27.332Z,5.60
2022-12-22T10:28:26.827Z,5.20
2022-12-22T10:30:53.171Z,5.37
2022-12-22T10:33:19.560Z,5.03
2022-12-22T10:35:45.915Z,5.07
2022-12-22T10:38:21.410Z,5.00
2022-12-22T10:40:38.636Z,5.50
2022-12-22T10:43:05.032Z,4.93
2022-12-22T10:45:31.395Z,5.53
2022-12-22T10:47:57.783Z,6.23
2022-12-22T10:50:24.073Z,5.43
2022-12-22T10:52:50.501Z,5.60
2022-12-22T10:55:16.909Z,5.33
2022-12-22T10:57:43.243Z,5.13
2022-12-22T11:00:09.592Z,5.00
2022-12-22T11:02:36.109Z,5.20
2022-12-22T11:05:02.308Z,4.80
2022-12-22T11:07:28.682Z,4.70
2022-12-22T11:09:55.025Z,5.60
2022-12-22T11:12:21.430Z,6.20
2022-12-22T11:14:47.768Z,5.00
2022-12-22T11:17:14.220Z,6.27
2022-12-22T11:19:40.501Z,4.93
2022-12-22T11:22:06.868Z,4.90
2022-12-22T11:24:33.209Z,5.20
2022-12-22T11:26:59.593Z,4.93
2022-12-22T11:29:25.932Z,5.80
2022-12-22T11:31:52.336Z,5.17
2022-12-22T11:34:21.301Z,4.67
2022-12-22T11:36:45.066Z,4.70
2022-12-22T11:39:11.409Z,5.00
2022-12-22T11:41:37.780Z,4.97
2022-12-22T11:44:04.144Z,5.33
2022-12-22T11:46:30.549Z,5.00
2022-12-22T11:48:56.857Z,5.50
2022-12-22T11:51:27.677Z,4.90
2022-12-22T11:53:49.577Z,4.70
2022-12-22T11:56:15.975Z,5.00
2022-12-22T11:58:42.380Z,5.30
2022-12-22T12:01:22.410Z,4.70
2022-12-22T12:03:35.179Z,4.73
2022-12-22T12:06:01.428Z,4.83
2022-12-22T12:08:27.843Z,5.20
2022-12-22T12:10:54.173Z,4.67
2022-12-22T12:13:28.663Z,5.43
2022-12-22T12:15:46.957Z,4.40
2022-12-22T12:18:13.306Z,4.57
2022-12-22T12:20:39.647Z,5.30
2022-12-22T12:23:06.035Z,5.00
2022-12-22T12:25:32.429Z,5.10
2022-12-22T12:27:58.791Z,4.60
2022-12-22T12:30:40.437Z,4.50
2022-12-22T12:32:51.553Z,4.60
2022-12-22T12:35:17.865Z,4.93
2022-12-22T12:37:44.281Z,5.10
2022-12-22T12:40:10.675Z,4.30
2022-12-22T12:42:37.030Z,4.80
2022-12-22T12:45:03.404Z,5.07
2022-12-22T12:47:29.785Z,4.90
2022-12-22T12:49:56.155Z,4.90
2022-12-22T12:52:22.534Z,5.10
2022-12-22T12:54:48.908Z,4.93
2022-12-22T12:57:16.325Z,4.87
2022-12-22T12:59:41.672Z,5.10
2022-12-22T13:02:08.229Z,4.50
2022-12-22T13:04:34.431Z,5.20
2022-12-22T13:07:00.838Z,4.80
2022-12-22T13:12:11.749Z,4.70
2022-12-22T13:14:20.051Z,5.00
2022-12-22T13:16:46.434Z,4.47
2022-12-22T13:19:12.688Z,4.97
2022-12-22T13:21:55.211Z,4.53
2022-12-22T13:24:24.082Z,4.90
2022-12-22T13:26:31.821Z,4.30
2022-12-22T13:28:58.157Z,4.73
2022-12-22T13:31:24.604Z,4.57
2022-12-22T13:36:29.174Z,4.73
2022-12-22T13:38:55.587Z,4.17
2022-12-22T13:41:27.202Z,4.97
2022-12-22T13:43:48.351Z,4.70
2022-12-22T13:46:14.755Z,5.10
2022-12-22T13:48:44.743Z,4.20
2022-12-22T13:51:07.452Z,5.20
2022-12-22T13:56:00.219Z,4.83
2022-12-22T13:58:26.589Z,4.63
2022-12-22T14:00:52.976Z,5.13
2022-12-22T14:03:41.709Z,4.67
2022-12-22T14:05:45.747Z,5.53
2022-12-22T14:08:12.074Z,4.87
2022-12-22T14:10:38.459Z,5.07
2022-12-22T14:13:04.906Z,4.60
2022-12-22T14:15:31.267Z,5.40
2022-12-22T14:17:57.641Z,5.10
2022-12-22T14:20:24.075Z,5.20
2022-12-22T14:22:50.471Z,5.23
2022-12-22T14:25:16.830Z,5.10
2022-12-22T14:27:43.216Z,5.07
2022-12-22T14:30:09.566Z,5.20
2022-12-22T14:32:35.950Z,5.70
2022-12-22T14:35:02.580Z,5.27
2022-12-22T14:37:32.936Z,5.50
2022-12-22T14:39:55.338Z,5.63
2022-12-22T14:42:21.716Z,5.30
2022-12-22T14:44:48.054Z,5.67
2022-12-22T14:47:14.435Z,5.53
2022-12-22T14:49:40.867Z,5.10
2022-12-22T14:52:07.251Z,5.23
2022-12-22T14:54:33.577Z,4.70
2022-12-22T14:57:00.008Z,5.50
2022-12-22T14:59:26.348Z,5.30
2022-12-22T15:01:52.900Z,5.50
2022-12-22T15:04:19.091Z,5.37
2022-12-22T15:06:45.486Z,5.67
2022-12-22T15:09:11.918Z,4.97
2022-12-22T15:11:38.245Z,5.40
2022-12-22T15:14:04.606Z,5.80
2022-12-22T15:16:31.033Z,5.73
2022-12-22T15:18:57.327Z,5.30
2022-12-22T15:21:24.903Z,5.43
2022-12-22T15:23:50.038Z,5.70
2022-12-22T15:26:16.451Z,5.50
2022-12-22T15:28:42.810Z,5.40
2022-12-22T15:31:09.220Z,5.30
2022-12-22T15:33:35.532Z,4.87
2022-12-22T15:36:01.937Z,5.23
2022-12-22T15:38:32.174Z,5.60
2022-12-22T15:40:54.766Z,6.00
2022-12-22T15:45:47.508Z,6.47
2022-12-22T15:48:13.829Z,5.90
2022-12-22T15:50:40.235Z,5.70
2022-12-22T15:53:06.580Z,5.77
2022-12-22T15:55:32.994Z,6.90
2022-12-22T15:57:59.354Z,6.70
2022-12-22T16:00:25.729Z,6.03
2022-12-22T16:02:52.297Z,7.03
2022-12-22T16:05:18.525Z,6.40
2022-12-22T16:07:44.851Z,6.20
2022-12-22T16:10:11.249Z,6.40
2022-12-22T16:12:37.629Z,6.10
2022-12-22T16:15:04.003Z,6.33
2022-12-22T16:17:30.347Z,6.03
2022-12-22T16:19:56.742Z,6.60
2022-12-22T16:22:24.292Z,6.30
2022-12-22T16:24:49.503Z,6.80
2022-12-22T16:27:15.842Z,6.83
2022-12-22T16:29:43.286Z,6.40
2022-12-22T16:32:15.327Z,6.20
2022-12-22T16:34:36.054Z,5.70
2022-12-22T16:37:02.397Z,6.00
2022-12-22T16:39:28.771Z,6.07
2022-12-22T16:41:59.888Z,6.03
2022-12-22T16:44:23.993Z,5.47
2022-12-22T16:46:50.388Z,5.43
2022-12-22T16:49:20.116Z,5.17
2022-12-22T16:51:43.118Z,5.70
2022-12-22T16:54:10.746Z,6.00
2022-12-22T16:56:35.869Z,5.80
2022-12-22T16:59:03.215Z,5.30
2022-12-22T17:01:28.695Z,6.10
2022-12-22T17:03:55.057Z,5.40
2022-12-22T17:06:21.445Z,5.80
2022-12-22T17:08:50.707Z,5.63
2022-12-22T17:11:17.053Z,5.57
2022-12-22T17:13:43.441Z,5.93
2022-12-22T17:16:09.917Z,5.33
2022-12-22T17:18:36.232Z,5.80
2022-12-22T17:21:02.561Z,5.70
2022-12-22T17:23:28.942Z,5.53
2022-12-22T17:25:55.276Z,5.30
2022-12-22T17:28:21.675Z,5.63
2022-12-22T17:30:48.068Z,5.43
2022-12-22T17:33:14.427Z,5.30
2022-12-22T17:35:40.772Z,5.40
2022-12-22T17:38:07.180Z,5.50
2022-12-22T17:40:33.554Z,5.30
2022-12-22T17:42:59.924Z,5.60
2022-12-22T17:45:26.269Z,5.80
2022-12-22T17:47:52.666Z,5.10
2022-12-22T17:50:19.005Z,5.27
2022-12-22T17:52:45.421Z,5.77
2022-12-22T17:55:11.795Z,5.30
2022-12-22T17:57:38.183Z,5.67
2022-12-22T18:00:04.532Z,4.90
2022-12-22T18:02:31.062Z,5.20
2022-12-22T18:04:57.303Z,5.00
2022-12-22T18:07:23.712Z,5.87
2022-12-22T18:09:50.107Z,4.90
2022-12-22T18:12:16.504Z,5.10
2022-12-22T18:14:42.885Z,5.60
2022-12-22T18:17:09.316Z,5.73
2022-12-22T18:19:35.660Z,5.07
2022-12-22T18:22:02.063Z,5.00
2022-12-22T18:24:28.402Z,5.53
2022-12-22T18:26:54.814Z,4.83
2022-12-22T18:29:21.156Z,5.30
2022-12-22T18:31:47.711Z,5.37
2022-12-22T18:34:14.005Z,5.73
2022-12-22T18:36:40.380Z,5.43
2022-12-22T18:39:10.543Z,5.10
2022-12-22T18:41:33.123Z,4.77
2022-12-22T18:43:59.479Z,6.23
2022-12-22T18:46:25.888Z,4.53
2022-12-22T18:48:52.227Z,5.60
2022-12-22T18:51:18.590Z,5.30
2022-12-22T18:53:44.963Z,5.20
2022-12-22T18:56:11.347Z,5.57
2022-12-22T18:58:37.730Z,4.87
2022-12-22T19:01:04.165Z,5.03
2022-12-22T19:03:30.524Z,5.10
2022-12-22T19:05:56.894Z,4.73
2022-12-22T19:08:23.236Z,4.90
2022-12-22T19:10:49.624Z,4.57
2022-12-22T19:13:16.015Z,5.13
2022-12-22T19:15:42.369Z,5.27
2022-12-22T19:18:08.731Z,4.73
2022-12-22T19:20:35.111Z,4.40
2022-12-22T19:23:01.455Z,4.47
2022-12-22T19:25:27.877Z,4.70
2022-12-22T19:27:54.239Z,5.30
2022-12-22T19:30:20.633Z,5.40
2022-12-22T19:32:47.114Z,4.87
2022-12-22T19:35:13.388Z,4.50
2022-12-22T19:37:39.760Z,4.63
2022-12-22T19:40:06.167Z,4.83
2022-12-22T19:42:32.504Z,4.50
2022-12-22T19:44:58.990Z,4.70
2022-12-22T19:47:25.333Z,4.60
2022-12-22T19:49:51.755Z,5.33
2022-12-22T19:52:18.111Z,4.30
2022-12-22T19:54:44.503Z,4.27
2022-12-22T19:57:10.941Z,4.87
2022-12-22T19:59:38.959Z,4.40
2022-12-22T20:02:03.850Z,4.40
2022-12-22T20:04:30.084Z,4.90
2022-12-22T20:06:56.456Z,4.43
2022-12-22T20:09:22.817Z,4.40
2022-12-22T20:11:49.163Z,4.63
2022-12-22T20:14:15.581Z,4.87
2022-12-22T20:16:41.980Z,4.10
2022-12-22T20:19:08.327Z,4.30
2022-12-22T20:21:35.866Z,4.07
2022-12-22T20:24:01.075Z,4.00
2022-12-22T20:26:27.433Z,4.67
2022-12-22T20:28:53.840Z,4.33
2022-12-22T20:31:20.203Z,4.73
2022-12-22T20:33:46.589Z,4.10
2022-12-22T20:36:14.025Z,4.37
2022-12-22T20:38:39.332Z,4.20
2022-12-22T20:41:05.710Z,4.67
2022-12-22T20:43:32.115Z,4.47
2022-12-22T20:45:58.496Z,3.90
2022-12-22T20:48:24.836Z,4.60
2022-12-22T20:50:51.226Z,4.30
2022-12-22T20:53:17.617Z,4.30
2022-12-22T20:55:43.991Z,4.43
2022-12-22T20:58:10.380Z,3.80
2022-12-22T21:00:36.758Z,4.03
2022-12-22T21:03:03.290Z,3.77
2022-12-22T21:05:29.539Z,4.50
2022-12-22T21:07:55.941Z,4.50
2022-12-22T21:10:22.284Z,4.27
2022-12-22T21:12:48.702Z,3.70
2022-12-22T21:15:15.044Z,4.27
2022-12-22T21:17:45.927Z,4.70
2022-12-22T21:20:07.833Z,4.10
2022-12-22T21:22:34.217Z,4.57
2022-12-22T21:25:00.605Z,4.13
2022-12-22T21:27:26.981Z,4.37
2022-12-22T21:29:55.797Z,4.03
2022-12-22T21:32:22.219Z,3.90
2022-12-22T21:34:48.562Z,4.20
2022-12-22T21:37:14.965Z,4.23
2022-12-22T21:39:41.311Z,3.97
2022-12-22T21:42:07.802Z,4.20
2022-12-22T21:44:34.098Z,3.77
2022-12-22T21:47:00.460Z,3.80
2022-12-22T21:49:26.817Z,4.10
2022-12-22T21:51:53.219Z,4.13
2022-12-22T21:54:19.567Z,3.57
2022-12-22T21:56:45.980Z,4.20
2022-12-22T21:59:12.362Z,4.47
2022-12-22T22:01:38.817Z,3.53
2022-12-22T22:04:05.086Z,4.20
2022-12-22T22:06:31.548Z,3.90
2022-12-22T22:08:57.900Z,4.00
2022-12-22T22:11:24.246Z,3.70
2022-12-22T22:13:50.653Z,4.00
2022-12-22T22:16:19.432Z,3.70
2022-12-22T22:18:43.415Z,3.80
2022-12-22T22:21:09.765Z,4.43
2022-12-22T22:23:36.180Z,3.77
2022-12-22T22:26:02.532Z,4.00
2022-12-22T22:28:29.004Z,3.97
2022-12-22T22:30:55.385Z,3.77
2022-12-22T22:33:21.740Z,3.93
2022-12-22T22:35:48.097Z,4.13
2022-12-22T22:38:14.470Z,4.13
2022-12-22T22:40:40.842Z,3.27
2022-12-22T22:43:07.232Z,3.67
2022-12-22T22:45:33.613Z,4.13
2022-12-22T22:48:00.002Z,3.97
2022-12-22T22:50:26.350Z,3.90
2022-12-22T22:52:52.724Z,3.50
2022-12-22T22:55:19.087Z,4.40
2022-12-22T22:57:45.484Z,3.53
2022-12-22T23:00:11.878Z,3.87
2022-12-22T23:02:38.459Z,3.50
2022-12-22T23:05:04.629Z,4.20
2022-12-22T23:07:31.049Z,3.50
2022-12-22T23:09:57.419Z,3.60
2022-12-22T23:12:23.835Z,3.90
2022-12-22T23:14:50.181Z,4.10
2022-12-22T23:17:16.577Z,4.20
2022-12-22T23:19:42.945Z,3.73
2022-12-22T23:22:09.335Z,3.80
2022-12-22T23:24:35.673Z,3.30
2022-12-22T23:27:02.071Z,4.13
2022-12-22T23:29:28.415Z,4.00
2022-12-22T23:31:54.847Z,3.80
2022-12-22T23:34:21.202Z,3.60
2022-12-22T23:36:47.587Z,3.63
2022-12-22T23:39:13.948Z,3.87
2022-12-22T23:41:40.408Z,3.60
2022-12-22T23:44:06.734Z,4.10
2022-12-22T23:46:33.220Z,4.20
2022-12-22T23:48:59.541Z,3.80
2022-12-22T23:51:25.904Z,3.77
2022-12-22T23:53:52.302Z,3.47
2022-12-22T23:56:18.664Z,3.90
2022-12-22T23:58:48.222Z,3.60
